sensor_id;sensor_type;location;lat;lon;timestamp;P1;durP1;ratioP1;P2;durP2;ratioP2
61358;SDS011;47228;46.762;23.598;2023-11-18T00:00:22;5.20;;;3.40;;
61358;SDS011;47228;46.762;23.598;2023-11-18T00:03:11;4.50;;;3.00;;
61358;SDS011;47228;46.762;23.598;2023-11-18T00:05:39;3.50;;;2.80;;
61358;SDS011;47228;46.762;23.598;2023-11-18T00:08:07;2.90;;;2.40;;
61358;SDS011;47228;46.762;23.598;2023-11-18T00:10:35;3.30;;;2.80;;
61358;SDS011;47228;46.762;23.598;2023-11-18T00:13:04;3.90;;;2.50;;
61358;SDS011;47228;46.762;23.598;2023-11-18T00:15:32;3.70;;;2.50;;
61358;SDS011;47228;46.762;23.598;2023-11-18T00:18:02;3.80;;;2.30;;
61358;SDS011;47228;46.762;23.598;2023-11-18T00:20:31;2.90;;;2.60;;
61358;SDS011;47228;46.762;23.598;2023-11-18T00:23:00;2.30;;;2.10;;
61358;SDS011;47228;46.762;23.598;2023-11-18T00:25:32;2.30;;;2.10;;
61358;SDS011;47228;46.762;23.598;2023-11-18T00:28:01;3.00;;;2.10;;
61358;SDS011;47228;46.762;23.598;2023-11-18T00:30:30;2.00;;;1.80;;
61358;SDS011;47228;46.762;23.598;2023-11-18T00:32:58;2.20;;;1.80;;
61358;SDS011;47228;46.762;23.598;2023-11-18T00:35:27;1.80;;;1.70;;
61358;SDS011;47228;46.762;23.598;2023-11-18T00:37:55;1.80;;;1.70;;
61358;SDS011;47228;46.762;23.598;2023-11-18T00:40:23;1.70;;;1.60;;
61358;SDS011;47228;46.762;23.598;2023-11-18T00:42:51;2.10;;;1.90;;
61358;SDS011;47228;46.762;23.598;2023-11-18T00:45:22;5.10;;;1.90;;
61358;SDS011;47228;46.762;23.598;2023-11-18T00:47:50;3.30;;;1.90;;
61358;SDS011;47228;46.762;23.598;2023-11-18T00:50:18;3.40;;;2.10;;
61358;SDS011;47228;46.762;23.598;2023-11-18T00:52:46;3.20;;;2.00;;
61358;SDS011;47228;46.762;23.598;2023-11-18T00:55:17;5.50;;;2.40;;
61358;SDS011;47228;46.762;23.598;2023-11-18T00:57:45;4.70;;;2.60;;
61358;SDS011;47228;46.762;23.598;2023-11-18T01:00:14;4.30;;;2.40;;
61358;SDS011;47228;46.762;23.598;2023-11-18T01:02:49;3.60;;;2.50;;
61358;SDS011;47228;46.762;23.598;2023-11-18T01:05:18;5.30;;;2.80;;
61358;SDS011;47228;46.762;23.598;2023-11-18T01:07:46;3.30;;;2.60;;
61358;SDS011;47228;46.762;23.598;2023-11-18T01:10:14;3.90;;;2.40;;
61358;SDS011;47228;46.762;23.598;2023-11-18T01:12:42;3.40;;;2.50;;
61358;SDS011;47228;46.762;23.598;2023-11-18T01:15:13;2.40;;;1.90;;
61358;SDS011;47228;46.762;23.598;2023-11-18T01:17:42;3.30;;;2.30;;
61358;SDS011;47228;46.762;23.598;2023-11-18T01:20:10;2.30;;;2.10;;
61358;SDS011;47228;46.762;23.598;2023-11-18T01:22:39;3.50;;;2.60;;
61358;SDS011;47228;46.762;23.598;2023-11-18T01:25:10;4.40;;;2.80;;
61358;SDS011;47228;46.762;23.598;2023-11-18T01:27:38;3.40;;;2.40;;
61358;SDS011;47228;46.762;23.598;2023-11-18T01:30:07;3.30;;;2.30;;
61358;SDS011;47228;46.762;23.598;2023-11-18T01:32:37;2.90;;;2.40;;
61358;SDS011;47228;46.762;23.598;2023-11-18T01:35:08;3.50;;;2.30;;
61358;SDS011;47228;46.762;23.598;2023-11-18T01:37:38;3.20;;;2.50;;
61358;SDS011;47228;46.762;23.598;2023-11-18T01:40:07;2.60;;;2.00;;
61358;SDS011;47228;46.762;23.598;2023-11-18T01:42:35;2.60;;;2.30;;
61358;SDS011;47228;46.762;23.598;2023-11-18T01:45:04;2.60;;;2.40;;
61358;SDS011;47228;46.762;23.598;2023-11-18T01:47:36;3.20;;;2.10;;
61358;SDS011;47228;46.762;23.598;2023-11-18T01:50:05;2.70;;;2.30;;
61358;SDS011;47228;46.762;23.598;2023-11-18T01:52:35;2.30;;;2.10;;
61358;SDS011;47228;46.762;23.598;2023-11-18T01:55:04;2.40;;;2.20;;
61358;SDS011;47228;46.762;23.598;2023-11-18T01:57:34;2.80;;;2.40;;
61358;SDS011;47228;46.762;23.598;2023-11-18T02:00:04;3.00;;;2.30;;
61358;SDS011;47228;46.762;23.598;2023-11-18T02:02:34;3.10;;;2.50;;
61358;SDS011;47228;46.762;23.598;2023-11-18T02:05:05;4.50;;;2.50;;
61358;SDS011;47228;46.762;23.598;2023-11-18T02:07:34;3.60;;;2.50;;
61358;SDS011;47228;46.762;23.598;2023-11-18T02:10:05;2.90;;;2.30;;
61358;SDS011;47228;46.762;23.598;2023-11-18T02:15:08;4.00;;;2.60;;
61358;SDS011;47228;46.762;23.598;2023-11-18T02:17:40;3.60;;;3.20;;
61358;SDS011;47228;46.762;23.598;2023-11-18T02:20:13;4.50;;;3.20;;
61358;SDS011;47228;46.762;23.598;2023-11-18T02:22:44;4.80;;;3.30;;
61358;SDS011;47228;46.762;23.598;2023-11-18T02:25:16;5.70;;;4.00;;
61358;SDS011;47228;46.762;23.598;2023-11-18T02:27:45;5.40;;;3.60;;
61358;SDS011;47228;46.762;23.598;2023-11-18T02:30:14;4.50;;;3.30;;
61358;SDS011;47228;46.762;23.598;2023-11-18T02:35:45;4.50;;;3.30;;
61358;SDS011;47228;46.762;23.598;2023-11-18T02:38:22;5.60;;;3.70;;
61358;SDS011;47228;46.762;23.598;2023-11-18T02:40:54;3.60;;;3.20;;
61358;SDS011;47228;46.762;23.598;2023-11-18T02:43:25;3.90;;;2.90;;
61358;SDS011;47228;46.762;23.598;2023-11-18T02:45:56;3.60;;;2.80;;
61358;SDS011;47228;46.762;23.598;2023-11-18T02:48:26;4.30;;;2.80;;
61358;SDS011;47228;46.762;23.598;2023-11-18T02:50:56;3.60;;;2.70;;
61358;SDS011;47228;46.762;23.598;2023-11-18T02:53:24;3.30;;;2.50;;
61358;SDS011;47228;46.762;23.598;2023-11-18T02:55:53;4.40;;;2.60;;
61358;SDS011;47228;46.762;23.598;2023-11-18T02:58:21;3.00;;;2.30;;
61358;SDS011;47228;46.762;23.598;2023-11-18T03:00:49;3.30;;;2.20;;
61358;SDS011;47228;46.762;23.598;2023-11-18T03:03:17;2.80;;;2.20;;
61358;SDS011;47228;46.762;23.598;2023-11-18T03:05:45;2.80;;;2.30;;
61358;SDS011;47228;46.762;23.598;2023-11-18T03:08:16;2.60;;;2.20;;
61358;SDS011;47228;46.762;23.598;2023-11-18T03:10:44;3.00;;;2.10;;
61358;SDS011;47228;46.762;23.598;2023-11-18T03:13:12;2.60;;;2.20;;
61358;SDS011;47228;46.762;23.598;2023-11-18T03:15:40;3.10;;;2.20;;
61358;SDS011;47228;46.762;23.598;2023-11-18T03:18:09;3.80;;;2.30;;
61358;SDS011;47228;46.762;23.598;2023-11-18T03:20:37;2.20;;;2.00;;
61358;SDS011;47228;46.762;23.598;2023-11-18T03:23:06;2.90;;;2.30;;
61358;SDS011;47228;46.762;23.598;2023-11-18T03:25:36;2.20;;;2.00;;
61358;SDS011;47228;46.762;23.598;2023-11-18T03:28:05;2.50;;;2.30;;
61358;SDS011;47228;46.762;23.598;2023-11-18T03:30:34;3.40;;;2.40;;
61358;SDS011;47228;46.762;23.598;2023-11-18T03:33:04;2.80;;;2.50;;
61358;SDS011;47228;46.762;23.598;2023-11-18T03:35:32;2.90;;;2.20;;
61358;SDS011;47228;46.762;23.598;2023-11-18T03:38:01;2.30;;;2.10;;
61358;SDS011;47228;46.762;23.598;2023-11-18T03:40:29;2.40;;;2.10;;
61358;SDS011;47228;46.762;23.598;2023-11-18T03:42:58;2.20;;;2.00;;
61358;SDS011;47228;46.762;23.598;2023-11-18T03:45:26;2.10;;;1.90;;
61358;SDS011;47228;46.762;23.598;2023-11-18T03:47:54;2.20;;;2.00;;
61358;SDS011;47228;46.762;23.598;2023-11-18T03:50:23;2.90;;;2.10;;
61358;SDS011;47228;46.762;23.598;2023-11-18T03:52:52;2.60;;;2.10;;
61358;SDS011;47228;46.762;23.598;2023-11-18T03:55:20;2.00;;;1.80;;
61358;SDS011;47228;46.762;23.598;2023-11-18T03:57:48;2.60;;;1.80;;
61358;SDS011;47228;46.762;23.598;2023-11-18T04:00:16;2.20;;;1.60;;
61358;SDS011;47228;46.762;23.598;2023-11-18T04:02:44;2.60;;;2.30;;
61358;SDS011;47228;46.762;23.598;2023-11-18T04:05:14;2.30;;;1.90;;
61358;SDS011;47228;46.762;23.598;2023-11-18T04:07:42;1.80;;;1.70;;
61358;SDS011;47228;46.762;23.598;2023-11-18T04:10:11;2.10;;;1.60;;
61358;SDS011;47228;46.762;23.598;2023-11-18T04:12:39;1.70;;;1.50;;
61358;SDS011;47228;46.762;23.598;2023-11-18T04:15:07;1.70;;;1.60;;
61358;SDS011;47228;46.762;23.598;2023-11-18T04:17:35;1.40;;;1.30;;
61358;SDS011;47228;46.762;23.598;2023-11-18T04:20:06;1.20;;;1.10;;
61358;SDS011;47228;46.762;23.598;2023-11-18T04:22:42;1.10;;;1.10;;
61358;SDS011;47228;46.762;23.598;2023-11-18T04:25:11;0.90;;;0.90;;
61358;SDS011;47228;46.762;23.598;2023-11-18T04:27:39;0.90;;;0.90;;
61358;SDS011;47228;46.762;23.598;2023-11-18T04:30:13;0.90;;;0.90;;
61358;SDS011;47228;46.762;23.598;2023-11-18T04:32:41;0.80;;;0.80;;
61358;SDS011;47228;46.762;23.598;2023-11-18T04:35:11;0.80;;;0.80;;
61358;SDS011;47228;46.762;23.598;2023-11-18T04:37:40;0.80;;;0.70;;
61358;SDS011;47228;46.762;23.598;2023-11-18T04:40:14;1.10;;;0.80;;
61358;SDS011;47228;46.762;23.598;2023-11-18T04:42:43;1.10;;;0.90;;
61358;SDS011;47228;46.762;23.598;2023-11-18T04:45:11;0.70;;;0.70;;
61358;SDS011;47228;46.762;23.598;2023-11-18T04:47:42;0.70;;;0.70;;
61358;SDS011;47228;46.762;23.598;2023-11-18T04:50:11;1.00;;;0.90;;
61358;SDS011;47228;46.762;23.598;2023-11-18T04:52:40;0.80;;;0.80;;
61358;SDS011;47228;46.762;23.598;2023-11-18T04:55:08;0.90;;;0.90;;
61358;SDS011;47228;46.762;23.598;2023-11-18T04:57:37;0.80;;;0.80;;
61358;SDS011;47228;46.762;23.598;2023-11-18T05:00:07;0.80;;;0.80;;
61358;SDS011;47228;46.762;23.598;2023-11-18T05:02:39;0.80;;;0.80;;
61358;SDS011;47228;46.762;23.598;2023-11-18T05:05:08;1.60;;;0.80;;
61358;SDS011;47228;46.762;23.598;2023-11-18T05:07:37;0.70;;;0.70;;
61358;SDS011;47228;46.762;23.598;2023-11-18T05:10:06;0.90;;;0.90;;
61358;SDS011;47228;46.762;23.598;2023-11-18T05:12:40;0.80;;;0.80;;
61358;SDS011;47228;46.762;23.598;2023-11-18T05:15:11;0.90;;;0.90;;
61358;SDS011;47228;46.762;23.598;2023-11-18T05:17:43;1.30;;;1.10;;
61358;SDS011;47228;46.762;23.598;2023-11-18T05:20:11;1.20;;;1.10;;
61358;SDS011;47228;46.762;23.598;2023-11-18T05:22:41;1.00;;;0.90;;
61358;SDS011;47228;46.762;23.598;2023-11-18T05:25:09;1.00;;;1.00;;
61358;SDS011;47228;46.762;23.598;2023-11-18T05:27:38;0.90;;;0.90;;
61358;SDS011;47228;46.762;23.598;2023-11-18T05:30:10;0.80;;;0.80;;
61358;SDS011;47228;46.762;23.598;2023-11-18T05:32:38;1.00;;;1.00;;
61358;SDS011;47228;46.762;23.598;2023-11-18T05:35:08;0.90;;;0.90;;
61358;SDS011;47228;46.762;23.598;2023-11-18T05:37:39;0.90;;;0.90;;
61358;SDS011;47228;46.762;23.598;2023-11-18T05:40:09;1.10;;;1.00;;
61358;SDS011;47228;46.762;23.598;2023-11-18T05:42:39;0.90;;;0.90;;
61358;SDS011;47228;46.762;23.598;2023-11-18T05:45:09;0.90;;;0.90;;
61358;SDS011;47228;46.762;23.598;2023-11-18T05:47:45;0.90;;;0.90;;
61358;SDS011;47228;46.762;23.598;2023-11-18T05:50:14;0.80;;;0.80;;
61358;SDS011;47228;46.762;23.598;2023-11-18T05:52:42;0.80;;;0.80;;
61358;SDS011;47228;46.762;23.598;2023-11-18T05:55:10;2.00;;;1.00;;
61358;SDS011;47228;46.762;23.598;2023-11-18T05:57:39;1.90;;;1.00;;
61358;SDS011;47228;46.762;23.598;2023-11-18T06:00:07;0.80;;;0.80;;
61358;SDS011;47228;46.762;23.598;2023-11-18T06:02:36;1.00;;;1.00;;
61358;SDS011;47228;46.762;23.598;2023-11-18T06:05:07;1.50;;;0.90;;
61358;SDS011;47228;46.762;23.598;2023-11-18T06:07:37;1.30;;;1.20;;
61358;SDS011;47228;46.762;23.598;2023-11-18T06:10:08;1.20;;;1.00;;
61358;SDS011;47228;46.762;23.598;2023-11-18T06:12:36;1.90;;;1.30;;
61358;SDS011;47228;46.762;23.598;2023-11-18T06:15:07;1.10;;;1.10;;
61358;SDS011;47228;46.762;23.598;2023-11-18T06:17:37;1.80;;;1.10;;
61358;SDS011;47228;46.762;23.598;2023-11-18T06:20:05;1.70;;;1.10;;
61358;SDS011;47228;46.762;23.598;2023-11-18T06:22:34;2.40;;;1.10;;
61358;SDS011;47228;46.762;23.598;2023-11-18T06:25:02;2.10;;;1.20;;
61358;SDS011;47228;46.762;23.598;2023-11-18T06:27:31;1.10;;;1.00;;
61358;SDS011;47228;46.762;23.598;2023-11-18T06:29:59;1.30;;;1.20;;
61358;SDS011;47228;46.762;23.598;2023-11-18T06:32:27;1.30;;;1.20;;
61358;SDS011;47228;46.762;23.598;2023-11-18T06:34:55;1.20;;;1.20;;
61358;SDS011;47228;46.762;23.598;2023-11-18T06:37:23;1.20;;;1.20;;
61358;SDS011;47228;46.762;23.598;2023-11-18T06:39:51;1.40;;;1.30;;
61358;SDS011;47228;46.762;23.598;2023-11-18T06:42:20;1.10;;;1.10;;
61358;SDS011;47228;46.762;23.598;2023-11-18T06:44:51;1.80;;;1.30;;
61358;SDS011;47228;46.762;23.598;2023-11-18T06:47:19;1.90;;;1.40;;
61358;SDS011;47228;46.762;23.598;2023-11-18T06:49:47;1.90;;;1.30;;
61358;SDS011;47228;46.762;23.598;2023-11-18T06:52:15;2.20;;;1.20;;
61358;SDS011;47228;46.762;23.598;2023-11-18T06:54:43;1.10;;;1.10;;
61358;SDS011;47228;46.762;23.598;2023-11-18T06:57:11;1.40;;;1.30;;
61358;SDS011;47228;46.762;23.598;2023-11-18T06:59:40;2.80;;;1.50;;
61358;SDS011;47228;46.762;23.598;2023-11-18T07:02:08;1.40;;;1.30;;
61358;SDS011;47228;46.762;23.598;2023-11-18T07:04:38;1.20;;;1.10;;
61358;SDS011;47228;46.762;23.598;2023-11-18T07:07:06;1.60;;;1.50;;
61358;SDS011;47228;46.762;23.598;2023-11-18T07:09:36;1.30;;;1.30;;
61358;SDS011;47228;46.762;23.598;2023-11-18T07:12:05;3.20;;;1.40;;
61358;SDS011;47228;46.762;23.598;2023-11-18T07:14:33;1.50;;;1.40;;
61358;SDS011;47228;46.762;23.598;2023-11-18T07:17:01;1.30;;;1.20;;
61358;SDS011;47228;46.762;23.598;2023-11-18T07:19:32;1.70;;;1.30;;
61358;SDS011;47228;46.762;23.598;2023-11-18T07:22:01;1.50;;;1.40;;
61358;SDS011;47228;46.762;23.598;2023-11-18T07:24:31;1.80;;;1.60;;
61358;SDS011;47228;46.762;23.598;2023-11-18T07:26:59;4.80;;;1.50;;
61358;SDS011;47228;46.762;23.598;2023-11-18T07:29:28;1.80;;;1.30;;
61358;SDS011;47228;46.762;23.598;2023-11-18T07:31:56;1.50;;;1.40;;
61358;SDS011;47228;46.762;23.598;2023-11-18T07:34:24;1.40;;;1.30;;
61358;SDS011;47228;46.762;23.598;2023-11-18T07:36:53;1.30;;;1.20;;
61358;SDS011;47228;46.762;23.598;2023-11-18T07:39:23;1.40;;;1.30;;
61358;SDS011;47228;46.762;23.598;2023-11-18T07:42:03;1.30;;;1.20;;
61358;SDS011;47228;46.762;23.598;2023-11-18T07:44:33;3.50;;;1.50;;
61358;SDS011;47228;46.762;23.598;2023-11-18T07:47:01;1.30;;;1.20;;
61358;SDS011;47228;46.762;23.598;2023-11-18T07:49:29;1.50;;;1.40;;
61358;SDS011;47228;46.762;23.598;2023-11-18T07:51:57;2.00;;;1.50;;
61358;SDS011;47228;46.762;23.598;2023-11-18T07:54:25;1.70;;;1.50;;
61358;SDS011;47228;46.762;23.598;2023-11-18T07:56:54;1.60;;;1.40;;
61358;SDS011;47228;46.762;23.598;2023-11-18T07:59:22;1.60;;;1.40;;
61358;SDS011;47228;46.762;23.598;2023-11-18T08:01:51;3.00;;;1.50;;
61358;SDS011;47228;46.762;23.598;2023-11-18T08:04:21;1.80;;;1.50;;
61358;SDS011;47228;46.762;23.598;2023-11-18T08:06:49;1.40;;;1.30;;
61358;SDS011;47228;46.762;23.598;2023-11-18T08:09:17;1.50;;;1.40;;
61358;SDS011;47228;46.762;23.598;2023-11-18T08:11:50;1.60;;;1.50;;
61358;SDS011;47228;46.762;23.598;2023-11-18T08:14:18;1.30;;;1.20;;
61358;SDS011;47228;46.762;23.598;2023-11-18T08:16:46;1.30;;;1.20;;
61358;SDS011;47228;46.762;23.598;2023-11-18T08:19:15;1.70;;;1.40;;
61358;SDS011;47228;46.762;23.598;2023-11-18T08:21:43;1.40;;;1.20;;
61358;SDS011;47228;46.762;23.598;2023-11-18T08:24:11;1.40;;;1.20;;
61358;SDS011;47228;46.762;23.598;2023-11-18T08:26:40;1.80;;;1.40;;
61358;SDS011;47228;46.762;23.598;2023-11-18T08:29:08;1.60;;;1.30;;
61358;SDS011;47228;46.762;23.598;2023-11-18T08:31:38;1.70;;;1.60;;
61358;SDS011;47228;46.762;23.598;2023-11-18T08:34:07;1.50;;;1.40;;
61358;SDS011;47228;46.762;23.598;2023-11-18T08:36:38;1.40;;;1.30;;
61358;SDS011;47228;46.762;23.598;2023-11-18T08:39:06;1.40;;;1.30;;
61358;SDS011;47228;46.762;23.598;2023-11-18T08:41:39;1.30;;;1.20;;
61358;SDS011;47228;46.762;23.598;2023-11-18T08:44:07;2.10;;;1.40;;
61358;SDS011;47228;46.762;23.598;2023-11-18T08:46:51;1.30;;;1.20;;
61358;SDS011;47228;46.762;23.598;2023-11-18T08:49:20;1.50;;;1.30;;
61358;SDS011;47228;46.762;23.598;2023-11-18T08:51:53;1.90;;;1.40;;
61358;SDS011;47228;46.762;23.598;2023-11-18T08:54:24;2.10;;;1.60;;
61358;SDS011;47228;46.762;23.598;2023-11-18T08:57:04;2.40;;;1.60;;
61358;SDS011;47228;46.762;23.598;2023-11-18T08:59:52;1.80;;;1.40;;
61358;SDS011;47228;46.762;23.598;2023-11-18T09:02:20;2.80;;;1.50;;
61358;SDS011;47228;46.762;23.598;2023-11-18T09:04:52;1.60;;;1.40;;
61358;SDS011;47228;46.762;23.598;2023-11-18T09:07:24;1.40;;;1.30;;
61358;SDS011;47228;46.762;23.598;2023-11-18T09:09:53;3.90;;;1.70;;
61358;SDS011;47228;46.762;23.598;2023-11-18T09:12:22;1.50;;;1.40;;
61358;SDS011;47228;46.762;23.598;2023-11-18T09:14:51;2.70;;;1.40;;
61358;SDS011;47228;46.762;23.598;2023-11-18T09:17:19;1.50;;;1.40;;
61358;SDS011;47228;46.762;23.598;2023-11-18T09:19:50;2.00;;;1.40;;
61358;SDS011;47228;46.762;23.598;2023-11-18T09:22:21;1.50;;;1.40;;
61358;SDS011;47228;46.762;23.598;2023-11-18T09:24:50;2.30;;;1.50;;
61358;SDS011;47228;46.762;23.598;2023-11-18T09:27:18;1.50;;;1.40;;
61358;SDS011;47228;46.762;23.598;2023-11-18T09:29:49;2.60;;;1.60;;
61358;SDS011;47228;46.762;23.598;2023-11-18T09:32:18;3.60;;;1.60;;
61358;SDS011;47228;46.762;23.598;2023-11-18T09:34:46;1.40;;;1.30;;
61358;SDS011;47228;46.762;23.598;2023-11-18T09:37:16;1.70;;;1.40;;
61358;SDS011;47228;46.762;23.598;2023-11-18T09:39:44;1.50;;;1.30;;
61358;SDS011;47228;46.762;23.598;2023-11-18T09:42:15;2.30;;;1.70;;
61358;SDS011;47228;46.762;23.598;2023-11-18T09:44:49;1.60;;;1.50;;
61358;SDS011;47228;46.762;23.598;2023-11-18T09:47:18;1.60;;;1.40;;
61358;SDS011;47228;46.762;23.598;2023-11-18T09:49:53;1.80;;;1.60;;
61358;SDS011;47228;46.762;23.598;2023-11-18T09:52:25;2.40;;;1.30;;
61358;SDS011;47228;46.762;23.598;2023-11-18T09:54:57;1.60;;;1.50;;
61358;SDS011;47228;46.762;23.598;2023-11-18T09:57:47;4.10;;;1.50;;
61358;SDS011;47228;46.762;23.598;2023-11-18T10:00:39;2.20;;;1.60;;
61358;SDS011;47228;46.762;23.598;2023-11-18T10:03:14;2.00;;;1.50;;
61358;SDS011;47228;46.762;23.598;2023-11-18T10:05:43;3.70;;;1.50;;
61358;SDS011;47228;46.762;23.598;2023-11-18T10:08:12;3.00;;;1.80;;
61358;SDS011;47228;46.762;23.598;2023-11-18T10:10:47;2.40;;;1.50;;
61358;SDS011;47228;46.762;23.598;2023-11-18T10:13:15;2.50;;;1.70;;
61358;SDS011;47228;46.762;23.598;2023-11-18T10:15:50;2.90;;;1.70;;
61358;SDS011;47228;46.762;23.598;2023-11-18T10:18:21;1.70;;;1.50;;
61358;SDS011;47228;46.762;23.598;2023-11-18T10:20:51;1.80;;;1.60;;
61358;SDS011;47228;46.762;23.598;2023-11-18T10:23:22;2.90;;;1.60;;
61358;SDS011;47228;46.762;23.598;2023-11-18T10:25:51;1.70;;;1.60;;
61358;SDS011;47228;46.762;23.598;2023-11-18T10:28:25;2.10;;;1.70;;
61358;SDS011;47228;46.762;23.598;2023-11-18T10:31:01;2.20;;;1.70;;
61358;SDS011;47228;46.762;23.598;2023-11-18T10:33:31;1.90;;;1.60;;
61358;SDS011;47228;46.762;23.598;2023-11-18T10:36:19;2.30;;;1.50;;
61358;SDS011;47228;46.762;23.598;2023-11-18T10:38:52;2.50;;;1.50;;
61358;SDS011;47228;46.762;23.598;2023-11-18T10:41:24;2.60;;;1.60;;
61358;SDS011;47228;46.762;23.598;2023-11-18T10:44:05;1.90;;;1.60;;
61358;SDS011;47228;46.762;23.598;2023-11-18T10:46:35;2.00;;;1.60;;
61358;SDS011;47228;46.762;23.598;2023-11-18T10:49:03;2.00;;;1.50;;
61358;SDS011;47228;46.762;23.598;2023-11-18T10:51:38;2.20;;;1.60;;
61358;SDS011;47228;46.762;23.598;2023-11-18T10:54:08;3.30;;;1.70;;
61358;SDS011;47228;46.762;23.598;2023-11-18T10:56:49;2.40;;;1.70;;
61358;SDS011;47228;46.762;23.598;2023-11-18T10:59:18;2.30;;;1.90;;
61358;SDS011;47228;46.762;23.598;2023-11-18T11:01:48;3.10;;;1.90;;
61358;SDS011;47228;46.762;23.598;2023-11-18T11:04:18;3.10;;;1.80;;
61358;SDS011;47228;46.762;23.598;2023-11-18T11:06:50;2.50;;;1.70;;
61358;SDS011;47228;46.762;23.598;2023-11-18T11:09:22;1.80;;;1.60;;
61358;SDS011;47228;46.762;23.598;2023-11-18T11:11:56;3.00;;;2.00;;
61358;SDS011;47228;46.762;23.598;2023-11-18T11:14:33;3.00;;;1.80;;
61358;SDS011;47228;46.762;23.598;2023-11-18T11:17:12;2.90;;;1.80;;
61358;SDS011;47228;46.762;23.598;2023-11-18T11:28:55;1.90;;;1.80;;
61358;SDS011;47228;46.762;23.598;2023-11-18T11:31:38;3.30;;;1.80;;
61358;SDS011;47228;46.762;23.598;2023-11-18T11:34:13;4.10;;;2.00;;
61358;SDS011;47228;46.762;23.598;2023-11-18T11:36:47;3.40;;;2.10;;
61358;SDS011;47228;46.762;23.598;2023-11-18T11:39:19;3.90;;;2.10;;
61358;SDS011;47228;46.762;23.598;2023-11-18T11:41:54;6.50;;;3.20;;
61358;SDS011;47228;46.762;23.598;2023-11-18T11:44:24;2.80;;;2.00;;
61358;SDS011;47228;46.762;23.598;2023-11-18T11:46:58;2.60;;;1.90;;
61358;SDS011;47228;46.762;23.598;2023-11-18T11:49:35;1.60;;;1.50;;
61358;SDS011;47228;46.762;23.598;2023-11-18T11:54:55;2.10;;;1.60;;
61358;SDS011;47228;46.762;23.598;2023-11-18T11:57:31;2.40;;;1.70;;
61358;SDS011;47228;46.762;23.598;2023-11-18T12:00:08;1.80;;;1.70;;
61358;SDS011;47228;46.762;23.598;2023-11-18T12:02:50;2.50;;;1.90;;
61358;SDS011;47228;46.762;23.598;2023-11-18T12:05:25;4.50;;;2.50;;
61358;SDS011;47228;46.762;23.598;2023-11-18T12:07:55;3.20;;;2.20;;
61358;SDS011;47228;46.762;23.598;2023-11-18T12:10:27;2.90;;;1.90;;
61358;SDS011;47228;46.762;23.598;2023-11-18T12:13:11;1.90;;;1.60;;
61358;SDS011;47228;46.762;23.598;2023-11-18T12:15:51;2.60;;;2.10;;
61358;SDS011;47228;46.762;23.598;2023-11-18T12:18:33;2.10;;;1.90;;
61358;SDS011;47228;46.762;23.598;2023-11-18T12:21:04;5.30;;;2.40;;
61358;SDS011;47228;46.762;23.598;2023-11-18T12:23:32;3.20;;;1.90;;
61358;SDS011;47228;46.762;23.598;2023-11-18T12:26:02;2.30;;;1.80;;
61358;SDS011;47228;46.762;23.598;2023-11-18T12:29:29;3.50;;;1.90;;
61358;SDS011;47228;46.762;23.598;2023-11-18T12:32:01;1.70;;;1.50;;
61358;SDS011;47228;46.762;23.598;2023-11-18T12:34:52;2.20;;;2.00;;
61358;SDS011;47228;46.762;23.598;2023-11-18T12:40:35;2.00;;;1.80;;
61358;SDS011;47228;46.762;23.598;2023-11-18T12:43:23;2.40;;;1.80;;
61358;SDS011;47228;46.762;23.598;2023-11-18T12:48:52;5.00;;;2.10;;
61358;SDS011;47228;46.762;23.598;2023-11-18T12:51:25;2.60;;;1.80;;
61358;SDS011;47228;46.762;23.598;2023-11-18T12:53:54;2.30;;;1.70;;
61358;SDS011;47228;46.762;23.598;2023-11-18T12:56:22;2.40;;;1.70;;
61358;SDS011;47228;46.762;23.598;2023-11-18T12:58:53;3.30;;;2.00;;
61358;SDS011;47228;46.762;23.598;2023-11-18T13:01:22;2.70;;;2.20;;
61358;SDS011;47228;46.762;23.598;2023-11-18T13:03:51;3.00;;;1.70;;
61358;SDS011;47228;46.762;23.598;2023-11-18T13:06:22;2.40;;;1.90;;
61358;SDS011;47228;46.762;23.598;2023-11-18T13:11:25;2.50;;;2.00;;
61358;SDS011;47228;46.762;23.598;2023-11-18T13:13:55;2.00;;;1.80;;
61358;SDS011;47228;46.762;23.598;2023-11-18T13:16:26;2.30;;;1.90;;
61358;SDS011;47228;46.762;23.598;2023-11-18T13:18:55;3.20;;;1.80;;
61358;SDS011;47228;46.762;23.598;2023-11-18T13:21:24;3.00;;;2.10;;
61358;SDS011;47228;46.762;23.598;2023-11-18T13:23:53;2.60;;;1.90;;
61358;SDS011;47228;46.762;23.598;2023-11-18T13:26:23;2.90;;;1.90;;
61358;SDS011;47228;46.762;23.598;2023-11-18T13:28:52;2.60;;;2.10;;
61358;SDS011;47228;46.762;23.598;2023-11-18T13:31:21;3.60;;;2.00;;
61358;SDS011;47228;46.762;23.598;2023-11-18T13:33:50;2.70;;;2.00;;
61358;SDS011;47228;46.762;23.598;2023-11-18T13:36:19;1.90;;;1.80;;
61358;SDS011;47228;46.762;23.598;2023-11-18T13:38:49;2.50;;;2.00;;
61358;SDS011;47228;46.762;23.598;2023-11-18T13:41:30;2.70;;;2.00;;
61358;SDS011;47228;46.762;23.598;2023-11-18T13:44:00;2.70;;;2.30;;
61358;SDS011;47228;46.762;23.598;2023-11-18T13:46:29;3.60;;;2.10;;
61358;SDS011;47228;46.762;23.598;2023-11-18T13:48:58;3.50;;;2.40;;
61358;SDS011;47228;46.762;23.598;2023-11-18T13:51:30;3.30;;;1.90;;
61358;SDS011;47228;46.762;23.598;2023-11-18T13:53:59;2.20;;;2.00;;
61358;SDS011;47228;46.762;23.598;2023-11-18T13:56:27;2.20;;;2.00;;
61358;SDS011;47228;46.762;23.598;2023-11-18T13:58:57;2.50;;;2.20;;
61358;SDS011;47228;46.762;23.598;2023-11-18T14:01:26;2.00;;;1.70;;
61358;SDS011;47228;46.762;23.598;2023-11-18T14:03:54;2.80;;;2.20;;
61358;SDS011;47228;46.762;23.598;2023-11-18T14:06:30;3.90;;;2.10;;
61358;SDS011;47228;46.762;23.598;2023-11-18T14:08:58;3.60;;;2.00;;
61358;SDS011;47228;46.762;23.598;2023-11-18T14:11:26;3.50;;;1.90;;
61358;SDS011;47228;46.762;23.598;2023-11-18T14:13:55;2.70;;;2.00;;
61358;SDS011;47228;46.762;23.598;2023-11-18T14:16:23;2.10;;;1.90;;
61358;SDS011;47228;46.762;23.598;2023-11-18T14:18:51;3.40;;;2.20;;
61358;SDS011;47228;46.762;23.598;2023-11-18T14:21:19;2.80;;;2.00;;
61358;SDS011;47228;46.762;23.598;2023-11-18T14:23:48;3.90;;;2.20;;
61358;SDS011;47228;46.762;23.598;2023-11-18T14:26:16;4.40;;;2.20;;
61358;SDS011;47228;46.762;23.598;2023-11-18T14:28:46;2.50;;;1.90;;
61358;SDS011;47228;46.762;23.598;2023-11-18T14:31:14;6.70;;;2.80;;
61358;SDS011;47228;46.762;23.598;2023-11-18T14:33:43;4.90;;;2.40;;
61358;SDS011;47228;46.762;23.598;2023-11-18T14:36:11;5.90;;;2.70;;
61358;SDS011;47228;46.762;23.598;2023-11-18T14:38:39;4.80;;;3.00;;
61358;SDS011;47228;46.762;23.598;2023-11-18T14:41:07;6.00;;;4.00;;
61358;SDS011;47228;46.762;23.598;2023-11-18T14:43:35;4.20;;;2.40;;
61358;SDS011;47228;46.762;23.598;2023-11-18T14:46:03;6.60;;;3.10;;
61358;SDS011;47228;46.762;23.598;2023-11-18T14:48:32;3.40;;;2.50;;
61358;SDS011;47228;46.762;23.598;2023-11-18T14:51:00;6.10;;;2.90;;
61358;SDS011;47228;46.762;23.598;2023-11-18T14:53:28;5.20;;;2.80;;
61358;SDS011;47228;46.762;23.598;2023-11-18T14:56:01;4.60;;;2.90;;
61358;SDS011;47228;46.762;23.598;2023-11-18T14:58:32;4.20;;;2.70;;
61358;SDS011;47228;46.762;23.598;2023-11-18T15:01:01;4.20;;;2.90;;
61358;SDS011;47228;46.762;23.598;2023-11-18T15:03:29;5.30;;;3.40;;
61358;SDS011;47228;46.762;23.598;2023-11-18T15:05:59;4.30;;;2.60;;
61358;SDS011;47228;46.762;23.598;2023-11-18T15:08:27;5.30;;;2.70;;
61358;SDS011;47228;46.762;23.598;2023-11-18T15:10:55;4.60;;;2.80;;
61358;SDS011;47228;46.762;23.598;2023-11-18T15:13:26;4.20;;;2.80;;
61358;SDS011;47228;46.762;23.598;2023-11-18T15:15:55;4.70;;;2.90;;
61358;SDS011;47228;46.762;23.598;2023-11-18T15:18:23;3.80;;;2.70;;